• Join FlightAware (Why Join?)
  • Login
  • US Flag 
08:16PM EDT


 

Airport Tracker/Info


-or-


 

Live Flight TrackerFlight Track Log ✈ SLI2466 ✈ 18-May-2013 ✈ MMTM / TAM - MMVR / VER

Flight Track Log - Related Links

Times and Time Zones

All times are in EDT time to prevent confusion due to time zone crossing. See the SLI2466 flight status page for this flight to view local times or setup timezone preferences in your user account.

Time Position Orientation Groundspeed Altitude Reporting Facility
EDT Latitude Longitude Course Direction KTS MPH feet Rate Location/Type
10:43AM 22.0113 -97.7106 153° Southeast  Level Estimated
10:44AM 21.9400 -97.6719 153° Southeast  Level Estimated
10:45AM 21.8686 -97.6332 153° Southeast  Level Estimated
10:46AM 21.7973 -97.5946 153° Southeast  Level Estimated
10:47AM 21.7260 -97.5560 153° Southeast  Level Estimated
10:48AM 21.6546 -97.5174 153° Southeast  Level Estimated
10:49AM 21.5833 -97.4789 153° Southeast  Level Estimated
10:50AM 21.5119 -97.4404 153° Southeast  Level Estimated
10:51AM 21.4405 -97.4020 153° Southeast  Level Estimated
10:52AM 21.3691 -97.3635 153° Southeast  Level Estimated
10:53AM 21.2977 -97.3252 153° Southeast  Level Estimated
10:54AM 21.2263 -97.2868 153° Southeast  Level Estimated
10:55AM 21.1549 -97.2485 153° Southeast  Level Estimated
10:56AM 21.0835 -97.2103 153° Southeast  Level Estimated
10:57AM 21.0121 -97.1720 153° Southeast  Level Estimated
10:58AM 20.9406 -97.1338 153° Southeast  Level Estimated
10:59AM 20.8692 -97.0957 153° Southeast  Level Estimated
11:00AM 20.7977 -97.0575 153° Southeast  Level Estimated
11:01AM 20.7262 -97.0195 154° Southeast  Level Estimated
11:02AM 20.6548 -96.9814 154° Southeast  Level Estimated
11:03AM 20.5833 -96.9434 154° Southeast  Level Estimated
11:04AM 20.5118 -96.9054 154° Southeast  Level Estimated
11:05AM 20.4403 -96.8675 154° Southeast  Level Estimated
11:06AM 20.3688 -96.8296 154° Southeast  Level Estimated
11:07AM 20.2973 -96.7917 154° Southeast  Level Estimated
11:08AM 20.2258 -96.7539 154° Southeast  Level Estimated
11:09AM 20.1542 -96.7161 154° Southeast  Level Estimated
11:10AM 20.0827 -96.6783 154° Southeast  Level Estimated
11:11AM 20.0111 -96.6406 154° Southeast  Level Estimated
11:12AM 19.9396 -96.6029 154° Southeast  Level Estimated
11:13AM 19.8680 -96.5652 154° Southeast  Level Estimated
11:14AM 19.7965 -96.5276 154° Southeast  Level Estimated
11:15AM 19.7249 -96.4900 154° Southeast  Level Estimated
11:16AM 19.6533 -96.4524 154° Southeast  Level Estimated
11:17AM 19.5817 -96.4149 154° Southeast  Level Estimated
11:18AM 19.5101 -96.3774 154° Southeast  Level Estimated
11:19AM 19.4385 -96.3399 154° Southeast  Level Estimated
11:20AM 19.3669 -96.3025 154° Southeast  Level Estimated
11:21AM 19.2952 -96.2651 154° Southeast  Level Estimated
11:22AM 19.2236 -96.2277 154° Southeast  Level Estimated
11:23AM 19.1520 -96.1904 154° Southeast  Level Estimated
11:24AM 19.1459 -96.1873 154° Southeast  Level Estimated
11:25AM 19.1459 -96.1873 71° East  Level Estimated
11:26AM 19.1459 -96.1873 71° East  Level Estimated